FDX5140 RPLC-RCTP
Flight info
| Callsign | FDX5140 |
|---|---|
| Flight time | 1h 26m |
| Altitude | 36000 |
| Route | RIANO4R RIANO TR25 CAB B462 LAO/N0483F370 M646 POTIB Q14 TNN TNN1A |
| Aircraft | MD11/H-SDE1E2E3FGHIJ2J3J4J5M1RWXY/LB1D1 |
Departure
| Time | 2026-05-05 10:23 |
|---|---|
| Airport | Clark International Airport / Clark Air Base (RPLC) |
Arrival
| Time | 2026-05-05 11:49 |
|---|---|
| Airport | Taiwan Taoyuan International Airport (RCTP) |
| Time | Latitude | Longitude | Altitude | Speed | Heading |
|---|---|---|---|---|---|
| 2026-05-05 09:14 | 15.18657 | 120.55178 | 502 ft | 0 kts | 111° |
| 2026-05-05 10:16 | 15.18651 | 120.55195 | 501 ft | 5 kts | 108° |
| 2026-05-05 10:16 | 15.18650 | 120.55212 | 500 ft | 0 kts | 84° |
| 2026-05-05 10:16 | 15.18651 | 120.55216 | 499 ft | 1 kts | 74° |
| 2026-05-05 10:17 | 15.18667 | 120.55255 | 497 ft | 10 kts | 67° |
| 2026-05-05 10:17 | 15.18661 | 120.55340 | 492 ft | 14 kts | 112° |
| 2026-05-05 10:17 | 15.18615 | 120.55454 | 487 ft | 12 kts | 112° |
| 2026-05-05 10:17 | 15.18577 | 120.55495 | 485 ft | 7 kts | 173° |
| 2026-05-05 10:18 | 15.18522 | 120.55482 | 487 ft | 8 kts | 199° |
| 2026-05-05 10:18 | 15.18470 | 120.55464 | 489 ft | 7 kts | 199° |
| 2026-05-05 10:18 | 15.18419 | 120.55446 | 491 ft | 7 kts | 202° |
| 2026-05-05 10:18 | 15.18367 | 120.55441 | 491 ft | 8 kts | 141° |
| 2026-05-05 10:19 | 15.18328 | 120.55511 | 489 ft | 14 kts | 110° |
| 2026-05-05 10:19 | 15.18287 | 120.55627 | 482 ft | 14 kts | 110° |
| 2026-05-05 10:19 | 15.18224 | 120.55667 | 480 ft | 13 kts | 191° |
| 2026-05-05 10:19 | 15.18132 | 120.55634 | 482 ft | 13 kts | 201° |
| 2026-05-05 10:20 | 15.18039 | 120.55597 | 486 ft | 15 kts | 201° |
| 2026-05-05 10:20 | 15.17936 | 120.55557 | 490 ft | 16 kts | 200° |
| 2026-05-05 10:20 | 15.17817 | 120.55510 | 492 ft | 19 kts | 202° |
| 2026-05-05 10:20 | 15.17698 | 120.55461 | 496 ft | 16 kts | 201° |
| 2026-05-05 10:21 | 15.17612 | 120.55480 | 495 ft | 14 kts | 129° |
| 2026-05-05 10:21 | 15.17551 | 120.55588 | 489 ft | 20 kts | 118° |
| 2026-05-05 10:21 | 15.17489 | 120.55701 | 484 ft | 15 kts | 120° |
| 2026-05-05 10:21 | 15.17465 | 120.55782 | 481 ft | 9 kts | 73° |
| 2026-05-05 10:22 | 15.17500 | 120.55809 | 480 ft | 4 kts | 20° |
| 2026-05-05 10:22 | 15.17564 | 120.55833 | 479 ft | 28 kts | 20° |
| 2026-05-05 10:22 | 15.18052 | 120.56027 | 463 ft | 119 kts | 20° |
| 2026-05-05 10:22 | 15.19079 | 120.56433 | 444 ft | 190 kts | 20° |
| 2026-05-05 10:23 | 15.20348 | 120.56934 | 1144 ft | 197 kts | 27° |
| 2026-05-05 10:23 | 15.21400 | 120.57762 | 2047 ft | 195 kts | 56° |
| 2026-05-05 10:23 | 15.21901 | 120.59019 | 3055 ft | 193 kts | 74° |
| 2026-05-05 10:23 | 15.22256 | 120.60319 | 3933 ft | 195 kts | 73° |
| 2026-05-05 10:24 | 15.22675 | 120.61653 | 4708 ft | 199 kts | 70° |
| 2026-05-05 10:24 | 15.23249 | 120.63048 | 5129 ft | 223 kts | 64° |
| 2026-05-05 10:24 | 15.24057 | 120.64548 | 5453 ft | 250 kts | 59° |
| 2026-05-05 10:24 | 15.25044 | 120.66101 | 6070 ft | 268 kts | 56° |
| 2026-05-05 10:25 | 15.26373 | 120.67437 | 7084 ft | 274 kts | 31° |
| 2026-05-05 10:25 | 15.28205 | 120.68047 | 8025 ft | 283 kts | 6° |
| 2026-05-05 10:25 | 15.30179 | 120.68002 | 8939 ft | 291 kts | 356° |
| 2026-05-05 10:25 | 15.32208 | 120.67761 | 9856 ft | 296 kts | 355° |
| 2026-05-05 10:26 | 15.34243 | 120.67554 | 10765 ft | 300 kts | 357° |
| 2026-05-05 10:26 | 15.36356 | 120.67436 | 11535 ft | 313 kts | 359° |
| 2026-05-05 10:26 | 15.38607 | 120.67406 | 12183 ft | 333 kts | 1° |
| 2026-05-05 10:26 | 15.41012 | 120.67436 | 12649 ft | 360 kts | 2° |
| 2026-05-05 10:27 | 15.43642 | 120.67486 | 12998 ft | 391 kts | 2° |
| 2026-05-05 10:27 | 15.46482 | 120.67523 | 13580 ft | 413 kts | 1° |
| 2026-05-05 10:27 | 15.49376 | 120.67551 | 14477 ft | 424 kts | 1° |
| 2026-05-05 10:27 | 15.52351 | 120.67580 | 15464 ft | 432 kts | 1° |
| 2026-05-05 10:28 | 15.55379 | 120.67614 | 16470 ft | 439 kts | 1° |
| 2026-05-05 10:28 | 15.58439 | 120.67652 | 17432 ft | 446 kts | 1° |
| 2026-05-05 10:28 | 15.61559 | 120.67690 | 18376 ft | 452 kts | 1° |
| 2026-05-05 10:28 | 15.64726 | 120.67726 | 19321 ft | 458 kts | 0° |
| 2026-05-05 10:29 | 15.67938 | 120.67763 | 20252 ft | 464 kts | 0° |
| 2026-05-05 10:29 | 15.71213 | 120.67804 | 21167 ft | 470 kts | 0° |
| 2026-05-05 10:29 | 15.74507 | 120.67844 | 22024 ft | 476 kts | 0° |
| 2026-05-05 10:29 | 15.77835 | 120.67882 | 22882 ft | 482 kts | 360° |
| 2026-05-05 10:30 | 15.81187 | 120.67920 | 23704 ft | 488 kts | 360° |
| 2026-05-05 10:30 | 15.84613 | 120.67962 | 24503 ft | 494 kts | 360° |
| 2026-05-05 10:30 | 15.88055 | 120.67961 | 25264 ft | 499 kts | 357° |
| 2026-05-05 10:30 | 15.91557 | 120.67751 | 26031 ft | 504 kts | 354° |
| 2026-05-05 10:31 | 15.95112 | 120.67445 | 26790 ft | 510 kts | 354° |
| 2026-05-05 10:31 | 15.98630 | 120.67142 | 27554 ft | 514 kts | 354° |
| 2026-05-05 10:31 | 16.02223 | 120.66876 | 28485 ft | 516 kts | 355° |
| 2026-05-05 10:31 | 16.05797 | 120.66646 | 29505 ft | 515 kts | 355° |
| 2026-05-05 10:32 | 16.09393 | 120.66428 | 30611 ft | 511 kts | 355° |
| 2026-05-05 10:32 | 16.12893 | 120.66218 | 31717 ft | 507 kts | 354° |
| 2026-05-05 10:32 | 16.16439 | 120.65990 | 32835 ft | 502 kts | 354° |
| 2026-05-05 10:32 | 16.19867 | 120.65759 | 33944 ft | 497 kts | 354° |
| 2026-05-05 10:33 | 16.23317 | 120.65535 | 34986 ft | 493 kts | 354° |
| 2026-05-05 10:33 | 16.26772 | 120.65324 | 35809 ft | 492 kts | 354° |
| 2026-05-05 10:33 | 16.30208 | 120.65108 | 35969 ft | 492 kts | 354° |
| 2026-05-05 10:33 | 16.33613 | 120.64880 | 36002 ft | 485 kts | 353° |
| 2026-05-05 10:34 | 16.40307 | 120.64447 | 36083 ft | 481 kts | 354° |
| 2026-05-05 10:34 | 16.47002 | 120.64024 | 36113 ft | 481 kts | 353° |
| 2026-05-05 10:35 | 16.53724 | 120.63578 | 36131 ft | 483 kts | 354° |
| 2026-05-05 10:35 | 16.60478 | 120.63160 | 36160 ft | 483 kts | 353° |
| 2026-05-05 10:36 | 16.67188 | 120.62708 | 36178 ft | 482 kts | 354° |
| 2026-05-05 10:36 | 16.73901 | 120.62296 | 36194 ft | 482 kts | 354° |
| 2026-05-05 10:37 | 16.80637 | 120.61839 | 36199 ft | 482 kts | 353° |
| 2026-05-05 10:37 | 16.87330 | 120.61423 | 36184 ft | 481 kts | 354° |
| 2026-05-05 10:38 | 16.94003 | 120.60976 | 36170 ft | 481 kts | 353° |
| 2026-05-05 10:38 | 17.00732 | 120.60546 | 36138 ft | 481 kts | 354° |
| 2026-05-05 10:39 | 17.07427 | 120.60111 | 36124 ft | 482 kts | 353° |
| 2026-05-05 10:39 | 17.14138 | 120.59670 | 36104 ft | 482 kts | 354° |
| 2026-05-05 10:40 | 17.20835 | 120.59245 | 36100 ft | 482 kts | 353° |
| 2026-05-05 10:40 | 17.27556 | 120.58793 | 36082 ft | 482 kts | 354° |
| 2026-05-05 10:41 | 17.34301 | 120.58374 | 36080 ft | 482 kts | 353° |
| 2026-05-05 10:41 | 17.40974 | 120.57920 | 36074 ft | 482 kts | 353° |
| 2026-05-05 10:42 | 17.51092 | 120.57277 | 36073 ft | 483 kts | 353° |
| 2026-05-05 10:43 | 17.57822 | 120.56829 | 36057 ft | 483 kts | 354° |
| 2026-05-05 10:43 | 17.64522 | 120.56405 | 36050 ft | 482 kts | 353° |
| 2026-05-05 10:44 | 17.71216 | 120.55949 | 36046 ft | 483 kts | 353° |
| 2026-05-05 10:44 | 17.77956 | 120.55527 | 36041 ft | 482 kts | 353° |
| 2026-05-05 10:45 | 17.84643 | 120.55070 | 36035 ft | 482 kts | 353° |
| 2026-05-05 10:45 | 17.91356 | 120.54649 | 36036 ft | 483 kts | 353° |
| 2026-05-05 10:46 | 17.98091 | 120.54191 | 36027 ft | 483 kts | 353° |
| 2026-05-05 10:46 | 18.04841 | 120.53764 | 36025 ft | 483 kts | 353° |
| 2026-05-05 10:47 | 18.11600 | 120.53312 | 36016 ft | 483 kts | 353° |
| 2026-05-05 10:47 | 18.18312 | 120.53089 | 36012 ft | 485 kts | 358° |
| 2026-05-05 10:48 | 18.25069 | 120.53462 | 36013 ft | 486 kts | 1° |
| 2026-05-05 10:48 | 18.31837 | 120.54045 | 36013 ft | 487 kts | 1° |
| 2026-05-05 10:49 | 18.38606 | 120.54582 | 36008 ft | 486 kts | 1° |
| 2026-05-05 10:49 | 18.45387 | 120.55108 | 36007 ft | 487 kts | 1° |
| 2026-05-05 10:50 | 18.52155 | 120.55654 | 36010 ft | 487 kts | 1° |
| 2026-05-05 10:50 | 18.58903 | 120.56190 | 36011 ft | 486 kts | 1° |
| 2026-05-05 10:51 | 18.65690 | 120.56737 | 36010 ft | 486 kts | 1° |
| 2026-05-05 10:51 | 18.72440 | 120.57265 | 36012 ft | 486 kts | 0° |
| 2026-05-05 10:52 | 18.79191 | 120.57793 | 36010 ft | 487 kts | 1° |
| 2026-05-05 10:52 | 18.85994 | 120.58360 | 36010 ft | 487 kts | 0° |
| 2026-05-05 10:53 | 18.92762 | 120.58896 | 36007 ft | 487 kts | 1° |
| 2026-05-05 10:53 | 18.99550 | 120.59464 | 36006 ft | 487 kts | 0° |
| 2026-05-05 10:54 | 19.06322 | 120.59998 | 36002 ft | 486 kts | 1° |
| 2026-05-05 10:54 | 19.13059 | 120.60554 | 36001 ft | 486 kts | 0° |
| 2026-05-05 10:55 | 19.19822 | 120.61060 | 35999 ft | 486 kts | 1° |
| 2026-05-05 10:55 | 19.26604 | 120.61633 | 35998 ft | 487 kts | 1° |
| 2026-05-05 10:56 | 19.33377 | 120.62169 | 35998 ft | 487 kts | 0° |
| 2026-05-05 10:56 | 19.40124 | 120.62733 | 35996 ft | 487 kts | 1° |
| 2026-05-05 10:57 | 19.46909 | 120.63259 | 35999 ft | 487 kts | 0° |
| 2026-05-05 10:57 | 19.53642 | 120.63796 | 35998 ft | 487 kts | 1° |
| 2026-05-05 10:58 | 19.60430 | 120.64361 | 35998 ft | 487 kts | 0° |
| 2026-05-05 10:58 | 19.67244 | 120.64906 | 36002 ft | 488 kts | 1° |
| 2026-05-05 10:59 | 19.73992 | 120.65473 | 36002 ft | 488 kts | 0° |
| 2026-05-05 10:59 | 19.80803 | 120.66012 | 36006 ft | 488 kts | 1° |
| 2026-05-05 11:00 | 19.87565 | 120.66583 | 36003 ft | 488 kts | 0° |
| 2026-05-05 11:00 | 19.94345 | 120.67119 | 36004 ft | 487 kts | 0° |
| 2026-05-05 11:01 | 20.01151 | 120.67693 | 36005 ft | 487 kts | 1° |
| 2026-05-05 11:01 | 20.07936 | 120.68231 | 36006 ft | 488 kts | 0° |
| 2026-05-05 11:02 | 20.14692 | 120.68800 | 36007 ft | 488 kts | 0° |
| 2026-05-05 11:02 | 20.21487 | 120.69341 | 36012 ft | 488 kts | 0° |
| 2026-05-05 11:03 | 20.28261 | 120.69908 | 36015 ft | 488 kts | 0° |
| 2026-05-05 11:03 | 20.35057 | 120.70463 | 36018 ft | 487 kts | 0° |
| 2026-05-05 11:04 | 20.41815 | 120.71024 | 36021 ft | 488 kts | 0° |
| 2026-05-05 11:04 | 20.48609 | 120.71585 | 36023 ft | 487 kts | 360° |
| 2026-05-05 11:05 | 20.55361 | 120.72139 | 36024 ft | 488 kts | 0° |
| 2026-05-05 11:05 | 20.62151 | 120.72707 | 36028 ft | 488 kts | 360° |
| 2026-05-05 11:06 | 20.68943 | 120.73257 | 36029 ft | 489 kts | 0° |
| 2026-05-05 11:06 | 20.75768 | 120.73834 | 36031 ft | 489 kts | 360° |
| 2026-05-05 11:07 | 20.82529 | 120.74377 | 36027 ft | 488 kts | 0° |
| 2026-05-05 11:07 | 20.89327 | 120.74957 | 36029 ft | 488 kts | 360° |
| 2026-05-05 11:08 | 20.96147 | 120.75474 | 36017 ft | 486 kts | 358° |
| 2026-05-05 11:08 | 21.02820 | 120.75070 | 36034 ft | 477 kts | 345° |
| 2026-05-05 11:09 | 21.09287 | 120.73520 | 36035 ft | 474 kts | 341° |
| 2026-05-05 11:09 | 21.15695 | 120.71797 | 36033 ft | 475 kts | 341° |
| 2026-05-05 11:10 | 21.22153 | 120.70152 | 36032 ft | 476 kts | 342° |
| 2026-05-05 11:10 | 21.28585 | 120.68531 | 36035 ft | 476 kts | 341° |
| 2026-05-05 11:11 | 21.35043 | 120.66876 | 36036 ft | 475 kts | 341° |
| 2026-05-05 11:11 | 21.41500 | 120.65232 | 36040 ft | 475 kts | 341° |
| 2026-05-05 11:12 | 21.47936 | 120.63579 | 36044 ft | 475 kts | 341° |
| 2026-05-05 11:12 | 21.54376 | 120.61941 | 36047 ft | 475 kts | 341° |
| 2026-05-05 11:13 | 21.60817 | 120.60255 | 36049 ft | 474 kts | 340° |
| 2026-05-05 11:13 | 21.67238 | 120.58577 | 36051 ft | 475 kts | 341° |
| 2026-05-05 11:14 | 21.73690 | 120.56957 | 36051 ft | 475 kts | 341° |
| 2026-05-05 11:14 | 21.80096 | 120.55309 | 36048 ft | 475 kts | 341° |
| 2026-05-05 11:15 | 21.86532 | 120.53574 | 36051 ft | 474 kts | 340° |
| 2026-05-05 11:15 | 21.92959 | 120.51896 | 36051 ft | 474 kts | 341° |
| 2026-05-05 11:16 | 21.99391 | 120.50239 | 36052 ft | 474 kts | 340° |
| 2026-05-05 11:16 | 22.05840 | 120.48569 | 36054 ft | 474 kts | 341° |
| 2026-05-05 11:17 | 22.12290 | 120.46910 | 36054 ft | 474 kts | 340° |
| 2026-05-05 11:17 | 22.18723 | 120.45245 | 36057 ft | 475 kts | 341° |
| 2026-05-05 11:18 | 22.25136 | 120.43597 | 36058 ft | 475 kts | 340° |
| 2026-05-05 11:18 | 22.31582 | 120.41925 | 36059 ft | 475 kts | 340° |
| 2026-05-05 11:19 | 22.38029 | 120.40273 | 36061 ft | 474 kts | 340° |
| 2026-05-05 11:19 | 22.44443 | 120.38605 | 36065 ft | 474 kts | 340° |
| 2026-05-05 11:20 | 22.50905 | 120.36954 | 36065 ft | 474 kts | 340° |
| 2026-05-05 11:20 | 22.57321 | 120.35284 | 36069 ft | 474 kts | 340° |
| 2026-05-05 11:21 | 22.62637 | 120.33923 | 36079 ft | 474 kts | 340° |
| 2026-05-05 11:21 | 22.70147 | 120.31956 | 36085 ft | 474 kts | 340° |
| 2026-05-05 11:22 | 22.76591 | 120.30298 | 36084 ft | 474 kts | 339° |
| 2026-05-05 11:22 | 22.82979 | 120.28611 | 36082 ft | 473 kts | 339° |
| 2026-05-05 11:23 | 22.89364 | 120.26842 | 36088 ft | 473 kts | 339° |
| 2026-05-05 11:23 | 22.95832 | 120.25167 | 36094 ft | 474 kts | 340° |
| 2026-05-05 11:24 | 23.02229 | 120.23517 | 36104 ft | 474 kts | 339° |
| 2026-05-05 11:24 | 23.08678 | 120.21860 | 36105 ft | 475 kts | 340° |
| 2026-05-05 11:25 | 23.15332 | 120.20991 | 36113 ft | 486 kts | 353° |
| 2026-05-05 11:25 | 23.22136 | 120.21545 | 35305 ft | 495 kts | 360° |
| 2026-05-05 11:25 | 23.25529 | 120.22003 | 34476 ft | 496 kts | 0° |
| 2026-05-05 11:26 | 23.28965 | 120.22473 | 33595 ft | 497 kts | 360° |
| 2026-05-05 11:26 | 23.32430 | 120.22908 | 32678 ft | 499 kts | 359° |
| 2026-05-05 11:26 | 23.35855 | 120.23316 | 31799 ft | 502 kts | 359° |
| 2026-05-05 11:26 | 23.39369 | 120.23722 | 30890 ft | 504 kts | 359° |
| 2026-05-05 11:27 | 23.42849 | 120.24121 | 29987 ft | 506 kts | 360° |
| 2026-05-05 11:27 | 23.46329 | 120.24528 | 29048 ft | 509 kts | 0° |
| 2026-05-05 11:27 | 23.49895 | 120.24957 | 28110 ft | 511 kts | 0° |
| 2026-05-05 11:27 | 23.53417 | 120.25382 | 27077 ft | 514 kts | 0° |
| 2026-05-05 11:28 | 23.56996 | 120.25805 | 26032 ft | 516 kts | 1° |
| 2026-05-05 11:28 | 23.60525 | 120.26219 | 25022 ft | 517 kts | 1° |
| 2026-05-05 11:28 | 23.64114 | 120.26656 | 24316 ft | 512 kts | 1° |
| 2026-05-05 11:28 | 23.67592 | 120.27077 | 23620 ft | 506 kts | 1° |
| 2026-05-05 11:29 | 23.71123 | 120.27651 | 22847 ft | 506 kts | 7° |
| 2026-05-05 11:29 | 23.74503 | 120.28622 | 22181 ft | 504 kts | 13° |
| 2026-05-05 11:29 | 23.77847 | 120.29815 | 21497 ft | 500 kts | 15° |
| 2026-05-05 11:29 | 23.81109 | 120.31039 | 20794 ft | 497 kts | 15° |
| 2026-05-05 11:30 | 23.84350 | 120.32244 | 20138 ft | 492 kts | 14° |
| 2026-05-05 11:30 | 23.87599 | 120.33402 | 19466 ft | 488 kts | 14° |
| 2026-05-05 11:30 | 23.90817 | 120.34520 | 18857 ft | 483 kts | 14° |
| 2026-05-05 11:30 | 23.94018 | 120.35619 | 18154 ft | 480 kts | 14° |
| 2026-05-05 11:31 | 23.97191 | 120.36706 | 17500 ft | 476 kts | 14° |
| 2026-05-05 11:31 | 24.00322 | 120.37791 | 16834 ft | 472 kts | 15° |
| 2026-05-05 11:31 | 24.03427 | 120.38880 | 16227 ft | 467 kts | 15° |
| 2026-05-05 11:31 | 24.06510 | 120.39954 | 15607 ft | 462 kts | 14° |
| 2026-05-05 11:32 | 24.09581 | 120.41014 | 15019 ft | 456 kts | 15° |
| 2026-05-05 11:32 | 24.12580 | 120.42048 | 14441 ft | 451 kts | 15° |
| 2026-05-05 11:32 | 24.15564 | 120.43094 | 13809 ft | 447 kts | 15° |
| 2026-05-05 11:32 | 24.18504 | 120.44124 | 13259 ft | 441 kts | 15° |
| 2026-05-05 11:33 | 24.21423 | 120.45137 | 12638 ft | 437 kts | 15° |
| 2026-05-05 11:33 | 24.23381 | 120.45809 | 12260 ft | 432 kts | 15° |
| 2026-05-05 11:33 | 24.27157 | 120.47121 | 11713 ft | 421 kts | 14° |
| 2026-05-05 11:33 | 24.29911 | 120.48086 | 11564 ft | 405 kts | 14° |
| 2026-05-05 11:34 | 24.32545 | 120.49003 | 11407 ft | 392 kts | 14° |
| 2026-05-05 11:34 | 24.35129 | 120.49896 | 11270 ft | 378 kts | 14° |
| 2026-05-05 11:34 | 24.37586 | 120.50745 | 11136 ft | 366 kts | 14° |
| 2026-05-05 11:34 | 24.40002 | 120.51589 | 11006 ft | 355 kts | 14° |
| 2026-05-05 11:35 | 24.42340 | 120.52405 | 10694 ft | 350 kts | 14° |
| 2026-05-05 11:35 | 24.44628 | 120.53200 | 10562 ft | 340 kts | 14° |
| 2026-05-05 11:35 | 24.46855 | 120.53977 | 10441 ft | 331 kts | 14° |
| 2026-05-05 11:35 | 24.48951 | 120.54908 | 10318 ft | 324 kts | 23° |
| 2026-05-05 11:36 | 24.50917 | 120.56113 | 10196 ft | 316 kts | 28° |
| 2026-05-05 11:36 | 24.52755 | 120.57406 | 10023 ft | 311 kts | 30° |
| 2026-05-05 11:36 | 24.54536 | 120.58717 | 9791 ft | 307 kts | 30° |
| 2026-05-05 11:36 | 24.56312 | 120.60023 | 9542 ft | 304 kts | 30° |
| 2026-05-05 11:37 | 24.58077 | 120.61289 | 9241 ft | 303 kts | 29° |
| 2026-05-05 11:37 | 24.59831 | 120.62523 | 8930 ft | 301 kts | 30° |
| 2026-05-05 11:37 | 24.61624 | 120.63769 | 8654 ft | 300 kts | 29° |
| 2026-05-05 11:37 | 24.63362 | 120.65004 | 8371 ft | 298 kts | 31° |
| 2026-05-05 11:38 | 24.65091 | 120.66236 | 8068 ft | 296 kts | 31° |
| 2026-05-05 11:38 | 24.66821 | 120.67461 | 7808 ft | 294 kts | 30° |
| 2026-05-05 11:38 | 24.68543 | 120.68675 | 7531 ft | 293 kts | 31° |
| 2026-05-05 11:38 | 24.70261 | 120.69892 | 7264 ft | 292 kts | 31° |
| 2026-05-05 11:39 | 24.71949 | 120.71094 | 7016 ft | 291 kts | 31° |
| 2026-05-05 11:39 | 24.73656 | 120.72311 | 6745 ft | 290 kts | 31° |
| 2026-05-05 11:39 | 24.75363 | 120.73514 | 6481 ft | 289 kts | 31° |
| 2026-05-05 11:39 | 24.77048 | 120.74715 | 6235 ft | 287 kts | 32° |
| 2026-05-05 11:40 | 24.78710 | 120.75900 | 5978 ft | 286 kts | 32° |
| 2026-05-05 11:40 | 24.80395 | 120.77092 | 5636 ft | 284 kts | 32° |
| 2026-05-05 11:40 | 24.82057 | 120.78263 | 5313 ft | 282 kts | 32° |
| 2026-05-05 11:40 | 24.83705 | 120.79430 | 4879 ft | 282 kts | 32° |
| 2026-05-05 11:41 | 24.85335 | 120.80589 | 4447 ft | 280 kts | 32° |
| 2026-05-05 11:41 | 24.86975 | 120.81760 | 4036 ft | 277 kts | 32° |
| 2026-05-05 11:41 | 24.88572 | 120.82889 | 3640 ft | 275 kts | 32° |
| 2026-05-05 11:41 | 24.90182 | 120.84029 | 3238 ft | 272 kts | 32° |
| 2026-05-05 11:42 | 24.91618 | 120.85391 | 2822 ft | 271 kts | 52° |
| 2026-05-05 11:42 | 24.92497 | 120.87180 | 2433 ft | 267 kts | 73° |
| 2026-05-05 11:42 | 24.92957 | 120.89126 | 2299 ft | 255 kts | 81° |
| 2026-05-05 11:42 | 24.93258 | 120.90997 | 2284 ft | 244 kts | 83° |
| 2026-05-05 11:43 | 24.93531 | 120.92808 | 2124 ft | 237 kts | 82° |
| 2026-05-05 11:43 | 24.93828 | 120.94576 | 1986 ft | 231 kts | 80° |
| 2026-05-05 11:43 | 24.94163 | 120.96300 | 2037 ft | 234 kts | 78° |
| 2026-05-05 11:43 | 24.94538 | 120.98063 | 1986 ft | 236 kts | 77° |
| 2026-05-05 11:44 | 24.94931 | 120.99818 | 1950 ft | 229 kts | 78° |
| 2026-05-05 11:44 | 24.95300 | 121.01476 | 1970 ft | 220 kts | 78° |
| 2026-05-05 11:44 | 24.95654 | 121.03118 | 2061 ft | 217 kts | 78° |
| 2026-05-05 11:44 | 24.95989 | 121.04686 | 2001 ft | 208 kts | 78° |
| 2026-05-05 11:45 | 24.96318 | 121.06236 | 1985 ft | 206 kts | 78° |
| 2026-05-05 11:45 | 24.96644 | 121.07772 | 1981 ft | 207 kts | 78° |
| 2026-05-05 11:45 | 24.96980 | 121.09315 | 1978 ft | 207 kts | 76° |
| 2026-05-05 11:45 | 24.97470 | 121.10806 | 1975 ft | 207 kts | 66° |
| 2026-05-05 11:46 | 24.98175 | 121.12139 | 1910 ft | 191 kts | 57° |
| 2026-05-05 11:46 | 24.98943 | 121.13244 | 1961 ft | 176 kts | 52° |
| 2026-05-05 11:46 | 24.99720 | 121.14237 | 1940 ft | 167 kts | 50° |
| 2026-05-05 11:46 | 25.00497 | 121.15193 | 1771 ft | 167 kts | 50° |
| 2026-05-05 11:47 | 25.01272 | 121.16156 | 1550 ft | 167 kts | 51° |
| 2026-05-05 11:47 | 25.02037 | 121.17124 | 1340 ft | 165 kts | 51° |
| 2026-05-05 11:47 | 25.02788 | 121.18097 | 1114 ft | 166 kts | 52° |
| 2026-05-05 11:47 | 25.03507 | 121.19076 | 898 ft | 164 kts | 52° |
| 2026-05-05 11:48 | 25.05029 | 121.20997 | 508 ft | 162 kts | 49° |
| 2026-05-05 11:48 | 25.05744 | 121.21902 | 265 ft | 155 kts | 50° |
| 2026-05-05 11:48 | 25.06468 | 121.22825 | 122 ft | 156 kts | 52° |
| 2026-05-05 11:49 | 25.07092 | 121.23624 | 120 ft | 115 kts | 48° |
| 2026-05-05 11:49 | 25.07464 | 121.24091 | 120 ft | 45 kts | 41° |
| 2026-05-05 11:49 | 25.07633 | 121.24199 | 120 ft | 20 kts | 19° |
| 2026-05-05 11:49 | 25.07716 | 121.24231 | 120 ft | 0 kts | 19° |
| 2026-05-05 11:50 | 25.07717 | 121.24231 | 120 ft | 0 kts | 19° |
| 2026-05-05 11:50 | 25.07793 | 121.24262 | 120 ft | 15 kts | 23° |
| 2026-05-05 11:51 | 25.07863 | 121.24300 | 120 ft | 0 kts | 33° |
| 2026-05-05 11:51 | 25.07876 | 121.24309 | 120 ft | 7 kts | 36° |
| 2026-05-05 11:51 | 25.07924 | 121.24366 | 120 ft | 12 kts | 50° |
| 2026-05-05 11:51 | 25.07991 | 121.24455 | 120 ft | 16 kts | 36° |
| 2026-05-05 11:52 | 25.08098 | 121.24412 | 120 ft | 19 kts | 316° |
| 2026-05-05 11:52 | 25.08210 | 121.24302 | 120 ft | 23 kts | 319° |
| 2026-05-05 11:52 | 25.08341 | 121.24177 | 120 ft | 26 kts | 319° |
| 2026-05-05 11:52 | 25.08490 | 121.24033 | 120 ft | 30 kts | 318° |
| 2026-05-05 11:53 | 25.08612 | 121.23919 | 120 ft | 23 kts | 319° |
| 2026-05-05 11:53 | 25.08711 | 121.23824 | 120 ft | 15 kts | 320° |
| 2026-05-05 11:53 | 25.08773 | 121.23819 | 120 ft | 10 kts | 32° |
| 2026-05-05 11:53 | 25.08843 | 121.23898 | 120 ft | 17 kts | 47° |
| 2026-05-05 11:54 | 25.08935 | 121.24016 | 120 ft | 22 kts | 49° |
| 2026-05-05 11:54 | 25.09014 | 121.24121 | 120 ft | 9 kts | 68° |
| 2026-05-05 11:54 | 25.08989 | 121.24184 | 120 ft | 7 kts | 138° |
| 2026-05-05 11:54 | 25.08971 | 121.24221 | 120 ft | 3 kts | 57° |
| 2026-05-05 11:55 | 25.09004 | 121.24205 | 120 ft | 8 kts | 298° |
| 2026-05-05 11:55 | 25.08968 | 121.24164 | 120 ft | 9 kts | 179° |
| 2026-05-05 11:55 | 25.08937 | 121.24189 | 120 ft | 7 kts | 135° |
| 2026-05-05 11:55 | 25.08928 | 121.24199 | 120 ft | 0 kts | 136° |